Time;durP1;ratioP1;P1;durP2;ratioP2;P2;SDS_P1;SDS_P2;PMS_P1;PMS_P2;Temp;Humidity;BMP_temperature;BMP_pressure;BME280_temperature;BME280_humidity;BME280_pressure;Samples;Min_cycle;Max_cycle;Signal;HPM_P1;HPM_P2
2024/03/04 00:03:51;;;;;;;11.35;10.15;;;;;;;12.74;62.00;98826.38;10434966;28;20064;-65
2024/03/04 00:08:53;;;;;;;10.93;9.77;;;;;;;12.75;61.89;98848.59;10434436;28;20064;-65
2024/03/04 00:13:54;;;;;;;13.77;10.70;;;;;;;12.72;62.24;98861.28;10435555;28;20541;-65
2024/03/04 00:18:57;;;;;;;13.35;11.40;;;;;;;12.70;62.66;98870.44;10405878;28;20055;-64
2024/03/04 00:23:59;;;;;;;13.18;11.88;;;;;;;12.71;62.41;98880.13;10418495;28;20545;-64
2024/03/04 00:29:00;;;;;;;13.57;12.18;;;;;;;12.62;62.77;98881.97;10428161;28;20720;-63
2024/03/04 00:34:04;;;;;;;14.65;11.88;;;;;;;12.62;62.64;98906.00;10432481;28;20052;-63
2024/03/04 00:39:05;;;;;;;14.25;11.75;;;;;;;12.55;62.96;98908.53;10437207;28;20037;-63
2024/03/04 00:44:07;;;;;;;14.25;12.40;;;;;;;12.54;63.39;98914.03;10409364;28;20053;-62
2024/03/04 00:49:09;;;;;;;13.43;11.45;;;;;;;12.50;63.67;98908.19;10430875;28;20124;-65
2024/03/04 00:54:10;;;;;;;15.40;13.23;;;;;;;12.47;63.66;98916.53;10431405;28;20100;-62
2024/03/04 00:59:12;;;;;;;15.70;12.50;;;;;;;12.45;64.17;98901.72;10431111;28;20055;-63
2024/03/04 01:04:14;;;;;;;15.10;13.38;;;;;;;12.38;64.04;98917.56;10392664;28;20712;-63
2024/03/04 01:09:17;;;;;;;13.88;12.30;;;;;;;12.32;64.17;98923.56;10421861;28;20055;-65
2024/03/04 01:14:20;;;;;;;14.90;12.30;;;;;;;12.32;64.01;98924.38;10390460;28;20049;-64
2024/03/04 01:19:23;;;;;;;13.40;11.63;;;;;;;12.27;64.36;98932.06;10436230;28;20056;-64
2024/03/04 01:24:25;;;;;;;13.05;11.60;;;;;;;12.17;64.29;98942.06;10434607;28;20052;-63
2024/03/04 01:29:26;;;;;;;12.15;10.90;;;;;;;12.06;64.43;98940.56;10438001;28;20044;-63
2024/03/04 01:34:28;;;;;;;13.50;11.60;;;;;;;12.03;65.13;98946.22;10440995;28;20570;-64
2024/03/04 01:39:30;;;;;;;13.00;11.70;;;;;;;11.98;65.21;98957.38;10440211;28;20036;-64
2024/03/04 01:44:33;;;;;;;12.63;11.25;;;;;;;12.00;65.10;98958.03;10442786;28;20495;-63
2024/03/04 01:49:37;;;;;;;16.15;12.10;;;;;;;11.99;64.80;98972.41;10429031;28;20145;-65
2024/03/04 01:54:43;;;;;;;13.65;11.93;;;;;;;11.94;65.29;98958.72;10415581;28;20221;-63
2024/03/04 01:59:51;;;;;;;14.15;11.70;;;;;;;11.90;65.57;98981.31;10439440;28;20044;-64
2024/03/04 02:04:52;;;;;;;13.82;12.25;;;;;;;11.82;65.41;98976.00;10437463;28;20056;-64
2024/03/04 02:09:55;;;;;;;12.52;11.07;;;;;;;11.93;65.25;98994.38;10437068;28;20047;-66
2024/03/04 02:15:00;;;;;;;14.50;11.15;;;;;;;11.95;64.88;98999.53;10425996;28;20059;-63
2024/03/04 02:20:12;;;;;;;14.52;12.35;;;;;;;11.86;65.51;99001.34;10415148;28;20051;-64
2024/03/04 02:25:14;;;;;;;13.82;11.43;;;;;;;11.85;65.60;99005.00;10411895;28;20058;-64
2024/03/04 02:30:16;;;;;;;14.55;12.60;;;;;;;11.79;65.93;99016.31;10437425;28;20171;-65
2024/03/04 02:35:17;;;;;;;13.77;12.35;;;;;;;11.76;66.20;99040.63;10434129;28;20810;-62
2024/03/04 02:40:19;;;;;;;15.40;13.25;;;;;;;11.70;66.45;99038.59;10422868;28;20051;-64
2024/03/04 02:45:21;;;;;;;15.80;13.60;;;;;;;11.67;66.52;99048.56;10410605;28;20056;-62
2024/03/04 02:50:22;;;;;;;19.17;15.88;;;;;;;11.60;66.90;99039.53;10385288;28;20057;-64
2024/03/04 02:55:24;;;;;;;19.10;15.98;;;;;;;11.18;69.00;99047.47;10418962;28;20059;-64
2024/03/04 03:00:25;;;;;;;17.40;15.32;;;;;;;11.31;68.84;99056.72;10440393;28;20603;-63
2024/03/04 03:05:27;;;;;;;18.98;16.27;;;;;;;11.35;68.81;99067.06;10435571;28;20057;-62
2024/03/04 03:10:29;;;;;;;19.83;17.65;;;;;;;11.30;69.60;99063.06;10434752;28;20610;-65
2024/03/04 03:15:30;;;;;;;23.58;21.15;;;;;;;11.29;70.88;99066.72;10432562;28;20672;-64
2024/03/04 03:20:32;;;;;;;26.45;23.35;;;;;;;11.34;71.65;99076.06;10417107;28;20057;-64
2024/03/04 03:25:33;;;;;;;28.20;24.25;;;;;;;11.36;72.26;99082.06;10427080;28;20154;-63
2024/03/04 03:30:35;;;;;;;27.92;23.30;;;;;;;11.33;72.61;99075.22;10414198;28;20059;-64
2024/03/04 03:35:37;;;;;;;29.00;25.40;;;;;;;11.29;73.40;99077.38;10429892;28;20824;-63
2024/03/04 03:40:38;;;;;;;28.17;25.08;;;;;;;11.27;73.72;99068.69;10428630;28;20052;-63
2024/03/04 03:45:41;;;;;;;31.58;26.33;;;;;;;11.34;74.09;99089.38;10428757;28;20037;-62
2024/03/04 03:50:42;;;;;;;29.88;26.17;;;;;;;11.37;73.52;99099.72;10393729;28;20056;-63
2024/03/04 03:55:44;;;;;;;30.80;24.98;;;;;;;11.40;73.23;99118.88;10426305;28;20702;-63
2024/03/04 04:00:46;;;;;;;32.25;26.75;;;;;;;11.32;73.71;99125.00;10425031;28;20178;-64
2024/03/04 04:05:48;;;;;;;34.08;26.55;;;;;;;11.25;73.60;99123.94;10400337;28;20064;-62
2024/03/04 04:10:49;;;;;;;37.50;31.90;;;;;;;11.34;74.38;99132.00;10416341;28;20559;-63
2024/03/04 04:15:52;;;;;;;38.72;30.58;;;;;;;11.35;74.43;99133.66;10415284;28;20553;-66
2024/03/04 04:20:54;;;;;;;35.63;28.52;;;;;;;11.30;74.66;99116.34;10423968;28;20052;-64
2024/03/04 04:25:55;;;;;;;39.22;30.58;;;;;;;11.25;75.58;99145.25;10403227;28;20576;-63
2024/03/04 04:30:57;;;;;;;37.72;29.27;;;;;;;11.23;75.40;99149.91;10404349;28;20083;-63
2024/03/04 04:35:59;;;;;;;35.50;27.88;;;;;;;11.21;75.40;99165.19;10424372;28;20053;-63
2024/03/04 04:41:00;;;;;;;34.47;28.23;;;;;;;11.11;76.03;99167.97;10408649;28;20130;-64
2024/03/04 04:46:02;;;;;;;30.15;24.25;;;;;;;11.17;76.19;99163.84;10426785;28;20223;-62
2024/03/04 04:51:04;;;;;;;33.83;26.85;;;;;;;11.18;76.11;99170.00;10406250;28;20041;-63
2024/03/04 04:56:06;;;;;;;36.15;27.20;;;;;;;11.14;76.17;99201.44;10426098;28;20135;-63
2024/03/04 05:01:08;;;;;;;37.60;28.63;;;;;;;11.16;76.04;99204.78;10423910;28;20045;-63
2024/03/04 05:06:14;;;;;;;39.45;29.95;;;;;;;10.99;77.41;99214.47;10397959;28;20080;-63
2024/03/04 05:11:17;;;;;;;38.00;29.38;;;;;;;10.88;77.61;99223.47;10417621;28;20370;-64
2024/03/04 05:16:19;;;;;;;31.02;25.25;;;;;;;10.73;76.19;99225.00;10427949;28;20056;-61
2024/03/04 05:21:20;;;;;;;31.80;22.83;;;;;;;10.61;75.77;99235.84;10419121;28;20662;-64
2024/03/04 05:26:22;;;;;;;24.85;22.10;;;;;;;10.53;75.09;99250.88;10409104;28;20049;-64
2024/03/04 05:31:23;;;;;;;29.23;21.90;;;;;;;10.41;75.12;99256.38;10426106;28;20636;-63
2024/03/04 05:36:25;;;;;;;25.67;20.90;;;;;;;10.45;75.23;99262.25;10429893;28;20052;-63
2024/03/04 05:41:26;;;;;;;29.33;22.55;;;;;;;10.36;75.06;99271.13;10426089;28;20119;-64
2024/03/04 05:46:28;;;;;;;25.42;22.13;;;;;;;10.27;75.14;99270.16;10395492;28;20048;-62
2024/03/04 05:51:29;;;;;;;26.35;20.88;;;;;;;10.30;74.73;99271.66;10424635;28;20103;-64
2024/03/04 05:56:31;;;;;;;26.25;19.63;;;;;;;10.30;74.81;99276.97;10427644;28;20596;-63
2024/03/04 06:01:33;;;;;;;29.95;22.33;;;;;;;10.11;75.39;99284.03;10406159;28;20143;-64
2024/03/04 06:06:35;;;;;;;25.67;21.55;;;;;;;10.12;75.78;99292.84;10425273;28;20144;-64
2024/03/04 06:11:39;;;;;;;27.67;22.80;;;;;;;10.23;75.70;99309.47;10440651;28;20052;-64
2024/03/04 06:16:41;;;;;;;24.50;21.05;;;;;;;10.25;75.44;99314.66;10431948;28;20037;-64
2024/03/04 06:21:43;;;;;;;28.30;22.15;;;;;;;10.13;76.08;99327.28;10411822;28;20080;-64
2024/03/04 06:26:48;;;;;;;26.88;21.58;;;;;;;10.12;76.36;99332.75;10433800;28;20793;-64
2024/03/04 06:31:54;;;;;;;26.30;21.40;;;;;;;10.23;76.53;99345.88;10428035;28;20708;-63
2024/03/04 06:36:59;;;;;;;28.75;22.10;;;;;;;10.21;76.61;99347.88;10382394;28;20068;-63
2024/03/04 06:42:01;;;;;;;27.88;20.98;;;;;;;10.17;76.81;99352.59;10417187;28;20491;-63
2024/03/04 06:47:05;;;;;;;29.30;21.88;;;;;;;10.24;76.99;99359.03;10396402;28;20150;-63
2024/03/04 06:52:10;;;;;;;27.38;20.70;;;;;;;10.45;76.85;99371.34;10420968;28;20063;-63
2024/03/04 06:57:14;;;;;;;26.52;22.08;;;;;;;10.46;76.59;99365.03;10438194;28;20594;-63
2024/03/04 07:02:15;;;;;;;28.17;21.95;;;;;;;10.62;76.83;99391.03;10427465;28;20053;-64
2024/03/04 07:07:17;;;;;;;29.02;21.77;;;;;;;10.70;76.68;99399.13;10435593;28;22465;-64
2024/03/04 07:12:27;;;;;;;28.23;22.17;;;;;;;10.71;77.05;99381.34;10429444;28;20053;-63
2024/03/04 07:17:29;;;;;;;28.55;21.65;;;;;;;10.78;77.00;99393.09;10413078;28;20068;-62
2024/03/04 07:22:30;;;;;;;29.10;23.10;;;;;;;10.98;77.17;99409.00;10432029;28;20056;-64
2024/03/04 07:27:32;;;;;;;32.83;23.98;;;;;;;10.82;76.56;99410.44;10423477;28;20059;-63
2024/03/04 07:32:34;;;;;;;28.67;23.10;;;;;;;10.70;78.27;99417.75;10429551;28;20052;-63
2024/03/04 07:37:36;;;;;;;29.38;21.20;;;;;;;10.78;77.18;99411.72;10440136;28;20057;-63
2024/03/04 07:42:37;;;;;;;32.28;23.50;;;;;;;10.89;76.70;99419.53;10402415;28;20092;-63
2024/03/04 07:47:39;;;;;;;29.35;23.60;;;;;;;10.95;76.94;99413.59;10384291;28;20057;-71
2024/03/04 07:52:40;;;;;;;26.63;22.63;;;;;;;10.97;76.71;99432.09;10408196;28;20053;-62
2024/03/04 07:57:43;;;;;;;30.48;24.42;;;;;;;11.02;76.45;99442.31;10418174;28;20775;-62
2024/03/04 08:02:45;;;;;;;31.10;23.48;;;;;;;11.18;76.91;99447.84;10427372;28;20056;-62
2024/03/04 08:07:47;;;;;;;32.28;24.60;;;;;;;11.12;76.41;99448.44;10426248;28;20060;-65
2024/03/04 08:12:48;;;;;;;30.50;24.58;;;;;;;11.10;76.99;99450.44;10417952;28;20508;-64
2024/03/04 08:17:52;;;;;;;29.75;23.65;;;;;;;11.19;77.08;99444.22;10430112;28;20059;-64
2024/03/04 08:22:56;;;;;;;30.55;23.40;;;;;;;11.37;76.68;99462.09;10411562;28;20060;-64
2024/03/04 08:28:00;;;;;;;30.57;23.30;;;;;;;11.35;76.20;99448.06;10409996;28;20056;-63
2024/03/04 08:33:03;;;;;;;31.85;23.63;;;;;;;11.47;76.23;99463.72;10424983;28;20052;-63
2024/03/04 08:38:05;;;;;;;31.73;24.38;;;;;;;11.49;76.01;99466.22;10408653;28;20063;-63
2024/03/04 08:43:07;;;;;;;32.33;25.95;;;;;;;11.55;75.83;99476.28;10431738;28;20120;-63
2024/03/04 08:48:09;;;;;;;29.70;23.52;;;;;;;11.51;75.77;99458.91;10383636;28;20075;-64
2024/03/04 08:53:11;;;;;;;30.48;23.88;;;;;;;11.65;76.12;99482.41;10426488;28;20098;-63
2024/03/04 08:58:15;;;;;;;31.17;23.92;;;;;;;11.72;75.65;99477.31;10427517;28;20106;-64
2024/03/04 09:03:17;;;;;;;32.70;25.30;;;;;;;11.78;75.40;99489.19;10433277;28;20051;-65
2024/03/04 09:08:18;;;;;;;29.55;23.88;;;;;;;11.88;75.31;99489.97;10412908;28;20088;-64
2024/03/04 09:13:20;;;;;;;37.55;27.83;;;;;;;11.80;75.36;99500.53;10391464;28;20548;-64
2024/03/04 09:18:21;;;;;;;39.70;23.05;;;;;;;11.80;75.37;99495.22;10404620;28;20493;-65
2024/03/04 09:23:25;;;;;;;29.08;21.60;;;;;;;11.74;76.07;99499.34;10415149;28;20106;-65
2024/03/04 09:28:27;;;;;;;29.15;21.45;;;;;;;11.87;75.01;99500.81;10416025;28;22974;-65
2024/03/04 09:33:28;;;;;;;28.20;23.40;;;;;;;11.99;74.92;99499.63;10416107;28;20067;-63
2024/03/04 09:38:30;;;;;;;27.90;22.33;;;;;;;11.98;74.57;99498.78;10407313;28;20053;-63
2024/03/04 09:43:36;;;;;;;28.00;21.00;;;;;;;12.08;74.26;99497.88;10416710;28;20148;-63
2024/03/04 09:48:39;;;;;;;27.02;22.20;;;;;;;11.92;75.27;99498.50;10411330;28;20057;-63
2024/03/04 09:53:42;;;;;;;28.42;21.95;;;;;;;11.73;74.93;99494.97;10427133;28;20644;-65
2024/03/04 09:58:45;;;;;;;27.20;20.50;;;;;;;12.05;75.16;99509.69;10404500;28;20077;-65
2024/03/04 10:03:47;;;;;;;29.90;22.40;;;;;;;12.15;74.60;99504.28;10414928;28;20057;-64
2024/03/04 10:08:49;;;;;;;29.33;23.13;;;;;;;12.27;73.93;99521.75;10417310;28;20055;-63
2024/03/04 10:13:53;;;;;;;29.25;20.85;;;;;;;12.33;73.76;99525.63;10441461;28;20052;-62
2024/03/04 10:18:59;;;;;;;25.85;21.25;;;;;;;12.25;73.26;99523.72;10410726;28;20068;-64
2024/03/04 10:24:08;;;;;;;27.90;21.33;;;;;;;12.07;74.08;99530.88;10430642;28;20159;-64
2024/03/04 10:29:12;;;;;;;27.90;20.15;;;;;;;12.05;74.65;99531.03;10421302;28;20833;-65
2024/03/04 10:34:14;;;;;;;27.83;20.48;;;;;;;12.05;74.57;99525.69;10402548;28;20159;-65
2024/03/04 10:39:18;;;;;;;29.80;20.73;;;;;;;12.07;74.02;99533.53;10433460;28;20040;-67
2024/03/04 10:44:24;;;;;;;24.83;19.00;;;;;;;12.07;73.60;99520.19;10421574;28;20384;-66
2024/03/04 10:49:28;;;;;;;26.40;19.67;;;;;;;12.05;73.81;99532.84;10424274;28;20279;-66
2024/03/04 10:54:30;;;;;;;26.23;19.57;;;;;;;12.13;73.59;99535.59;10429913;28;20398;-65
2024/03/04 10:59:36;;;;;;;28.30;19.48;;;;;;;12.28;73.08;99535.91;10438195;28;21271;-66
2024/03/04 11:04:41;;;;;;;27.13;19.60;;;;;;;12.21;72.31;99535.69;10410260;28;20470;-64
2024/03/04 11:09:49;;;;;;;24.63;17.83;;;;;;;11.85;73.47;99531.09;10401925;28;20595;-64
2024/03/04 11:15:00;;;;;;;23.50;17.60;;;;;;;12.13;73.22;99531.13;10432395;28;20299;-63
2024/03/04 11:20:03;;;;;;;22.90;18.30;;;;;;;12.11;73.31;99530.41;10401999;28;20049;-64
2024/03/04 11:25:08;;;;;;;24.38;18.30;;;;;;;12.20;72.66;99528.66;10417882;28;20060;-63
2024/03/04 11:30:11;;;;;;;21.27;18.20;;;;;;;12.06;73.07;99522.03;10393068;28;20457;-64
2024/03/04 11:35:26;;;;;;;23.58;17.40;;;;;;;12.32;72.46;99537.28;10408926;28;20049;-64
2024/03/04 11:40:27;;;;;;;23.58;17.08;;;;;;;12.45;71.29;99534.25;10419503;28;20052;-63
2024/03/04 11:45:36;;;;;;;24.43;17.50;;;;;;;12.58;70.58;99541.84;10397740;28;20655;-61
2024/03/04 11:50:47;;;;;;;24.17;19.80;;;;;;;12.11;71.31;99545.59;10431732;28;20418;-62
2024/03/04 11:55:50;;;;;;;20.05;16.77;;;;;;;12.35;71.81;99553.81;10415666;28;20712;-63
2024/03/04 12:00:52;;;;;;;22.63;16.83;;;;;;;12.52;70.75;99543.31;10403652;28;20056;-65
2024/03/04 12:06:11;;;;;;;22.42;16.98;;;;;;;12.65;70.30;99559.78;10415335;28;21771;-62
2024/03/04 12:11:15;;;;;;;20.10;15.85;;;;;;;12.22;70.83;99542.72;10403384;28;20144;-62
2024/03/04 12:16:17;;;;;;;21.40;16.55;;;;;;;12.25;71.22;99547.75;10425816;28;20105;-62
2024/03/04 12:21:19;;;;;;;25.85;19.13;;;;;;;12.55;70.22;99567.06;10432622;28;20053;-62
2024/03/04 12:26:20;;;;;;;19.80;16.70;;;;;;;12.32;70.76;99564.81;10419398;28;20142;-63
2024/03/04 12:31:22;;;;;;;21.48;15.85;;;;;;;12.56;70.18;99566.03;10432277;28;20052;-63
2024/03/04 12:36:25;;;;;;;18.77;14.93;;;;;;;12.67;69.55;99568.47;10414497;28;20085;-62
2024/03/04 12:41:27;;;;;;;18.60;14.38;;;;;;;12.72;68.98;99558.16;10429264;28;20055;-62
2024/03/04 12:46:33;;;;;;;22.23;15.70;;;;;;;12.78;68.67;99558.56;10390998;28;21037;-62
2024/03/04 12:51:35;;;;;;;18.30;14.73;;;;;;;12.82;68.15;99562.56;10397963;28;20044;-62
2024/03/04 12:56:37;;;;;;;21.88;17.05;;;;;;;12.83;67.90;99561.59;10395132;28;20053;-61
2024/03/04 13:01:39;;;;;;;26.60;14.98;;;;;;;12.77;67.09;99557.69;10428699;28;20107;-62
2024/03/04 13:06:42;;;;;;;28.67;16.27;;;;;;;12.77;67.05;99564.88;10425803;28;20068;-61
2024/03/04 13:11:44;;;;;;;19.27;15.30;;;;;;;12.77;67.29;99567.56;10407991;28;20072;-63
2024/03/04 13:16:45;;;;;;;20.90;14.65;;;;;;;12.80;66.93;99561.91;10425604;28;20049;-63
2024/03/04 13:21:47;;;;;;;17.77;14.18;;;;;;;12.67;67.55;99556.94;10414182;28;20106;-62
2024/03/04 13:26:48;;;;;;;21.88;14.75;;;;;;;12.57;68.25;99567.72;10424340;28;20056;-65
2024/03/04 13:31:50;;;;;;;18.45;14.60;;;;;;;12.54;67.99;99573.38;10428114;28;20335;-63
2024/03/04 13:36:51;;;;;;;18.38;13.68;;;;;;;12.61;67.61;99569.09;10393572;28;20209;-63
2024/03/04 13:41:53;;;;;;;17.67;14.68;;;;;;;12.66;67.90;99573.97;10390016;28;20056;-63
2024/03/04 13:46:54;;;;;;;20.10;15.07;;;;;;;12.46;67.36;99538.56;10405313;28;20147;-62
2024/03/04 13:51:57;;;;;;;18.75;14.82;;;;;;;12.57;67.34;99545.53;10404787;28;20558;-62
2024/03/04 13:57:01;;;;;;;16.92;13.38;;;;;;;12.66;67.07;99560.63;10422228;28;20051;-63
2024/03/04 14:02:03;;;;;;;16.92;13.75;;;;;;;12.80;67.29;99564.56;10414500;28;20150;-62
2024/03/04 14:07:05;;;;;;;15.75;13.57;;;;;;;12.83;66.91;99569.59;10416632;28;20056;-62
2024/03/04 14:12:06;;;;;;;20.63;14.50;;;;;;;12.84;66.91;99564.09;10415865;28;20115;-63
2024/03/04 14:17:08;;;;;;;15.15;12.55;;;;;;;12.80;66.38;99548.56;10396228;28;20049;-63
2024/03/04 14:22:10;;;;;;;15.38;12.73;;;;;;;12.83;66.49;99556.25;10403470;28;20059;-62
2024/03/04 14:27:12;;;;;;;16.48;12.43;;;;;;;12.78;66.70;99547.88;10418905;28;20056;-64
2024/03/04 14:32:14;;;;;;;18.45;14.32;;;;;;;12.80;66.05;99544.03;10432778;28;20566;-64
2024/03/04 14:37:16;;;;;;;15.95;13.23;;;;;;;12.91;66.45;99553.66;10418022;28;20083;-65
2024/03/04 14:42:18;;;;;;;16.67;12.15;;;;;;;12.76;65.88;99540.03;10410427;28;20098;-60
2024/03/04 14:47:20;;;;;;;22.23;13.15;;;;;;;12.58;66.44;99556.06;10430809;28;20177;-63
2024/03/04 14:52:23;;;;;;;17.90;12.38;;;;;;;12.48;67.30;99558.78;10434344;28;20505;-62
2024/03/04 14:57:25;;;;;;;17.80;13.82;;;;;;;12.09;68.57;99566.25;10424522;28;20186;-62
2024/03/04 15:02:26;;;;;;;18.85;13.70;;;;;;;11.81;70.30;99566.22;10432422;28;20525;-63
2024/03/04 15:07:28;;;;;;;15.77;12.70;;;;;;;12.04;70.09;99564.03;10432950;28;20068;-61
2024/03/04 15:12:29;;;;;;;17.98;14.18;;;;;;;11.92;70.62;99566.03;10416773;28;20151;-62
2024/03/04 15:17:31;;;;;;;19.33;12.77;;;;;;;11.85;70.40;99539.09;10426356;28;20084;-62
2024/03/04 15:22:35;;;;;;;15.13;11.75;;;;;;;12.27;69.20;99575.09;10434444;28;20686;-63
2024/03/04 15:27:37;;;;;;;15.35;12.35;;;;;;;12.28;68.71;99575.94;10417161;28;20072;-61
2024/03/04 15:32:39;;;;;;;16.15;12.75;;;;;;;11.66;69.98;99568.53;10418730;28;20071;-62
2024/03/04 15:37:42;;;;;;;16.85;12.93;;;;;;;11.61;70.76;99571.66;10430595;28;20409;-62
2024/03/04 15:42:44;;;;;;;16.30;12.85;;;;;;;11.35;71.63;99565.28;10423382;28;20083;-62
2024/03/04 15:47:45;;;;;;;15.15;12.48;;;;;;;11.72;70.81;99577.78;10412270;28;20064;-62
2024/03/04 15:52:48;;;;;;;16.20;11.98;;;;;;;11.59;70.50;99575.44;10413228;28;20274;-62
2024/03/04 15:57:53;;;;;;;14.68;12.60;;;;;;;11.54;71.61;99581.22;10429738;28;20079;-62
2024/03/04 16:02:55;;;;;;;15.25;11.95;;;;;;;11.70;71.08;99582.44;10435207;28;20052;-63
2024/03/04 16:07:56;;;;;;;16.40;12.40;;;;;;;11.92;70.11;99584.72;10438487;28;20418;-62
2024/03/04 16:13:00;;;;;;;18.52;13.40;;;;;;;11.87;69.62;99586.97;10431741;28;20447;-62
2024/03/04 16:18:03;;;;;;;15.52;12.13;;;;;;;11.82;69.40;99595.41;10418137;28;20525;-62
2024/03/04 16:23:04;;;;;;;16.17;13.15;;;;;;;11.95;69.51;99599.59;10414351;28;20075;-63
2024/03/04 16:28:07;;;;;;;16.30;12.85;;;;;;;12.00;68.95;99595.50;10428587;28;20068;-62
2024/03/04 16:33:08;;;;;;;18.65;13.02;;;;;;;12.10;68.69;99602.59;10418475;28;20053;-62
2024/03/04 16:38:10;;;;;;;13.90;11.15;;;;;;;12.13;68.59;99607.63;10410388;28;20140;-63
2024/03/04 16:43:13;;;;;;;18.45;13.40;;;;;;;12.04;68.82;99598.72;10430662;28;20518;-63
2024/03/04 16:48:15;;;;;;;16.92;13.05;;;;;;;11.68;70.42;99604.75;10430893;28;20608;-63
2024/03/04 16:53:17;;;;;;;16.77;12.90;;;;;;;11.83;70.69;99598.94;10417346;28;20166;-62
2024/03/04 16:58:19;;;;;;;18.67;13.30;;;;;;;11.95;70.60;99608.44;10420209;28;20045;-62
2024/03/04 17:03:20;;;;;;;18.60;14.77;;;;;;;11.97;70.55;99606.44;10406911;28;20132;-61
2024/03/04 17:08:22;;;;;;;19.70;14.63;;;;;;;11.74;71.71;99603.31;10410716;28;20048;-62
2024/03/04 17:13:24;;;;;;;19.95;13.55;;;;;;;11.85;70.69;99599.63;10428467;28;20059;-63
2024/03/04 17:18:25;;;;;;;18.90;14.00;;;;;;;11.87;70.58;99612.81;10429417;28;20082;-62
2024/03/04 17:23:27;;;;;;;21.48;14.80;;;;;;;11.89;71.07;99618.81;10422655;28;20918;-61
2024/03/04 17:28:28;;;;;;;19.65;14.07;;;;;;;11.99;70.65;99616.97;10427568;28;20101;-61
2024/03/04 17:33:31;;;;;;;19.35;12.98;;;;;;;12.03;70.02;99621.88;10428380;28;20044;-61
2024/03/04 17:38:32;;;;;;;17.73;13.20;;;;;;;12.07;69.66;99635.75;10412185;28;20412;-61
2024/03/04 17:43:36;;;;;;;21.85;13.82;;;;;;;12.12;69.34;99632.66;10428973;28;20057;-60
2024/03/04 17:48:38;;;;;;;17.95;13.65;;;;;;;12.05;69.43;99636.88;10431723;28;20036;-60
2024/03/04 17:53:39;;;;;;;18.80;14.30;;;;;;;12.01;69.81;99637.19;10410839;28;20048;-61
2024/03/04 17:58:41;;;;;;;15.77;12.82;;;;;;;12.00;69.56;99626.66;10426571;28;20067;-62
2024/03/04 18:03:43;;;;;;;21.25;14.25;;;;;;;12.12;69.36;99637.97;10421162;28;20048;-61
2024/03/04 18:08:44;;;;;;;21.70;15.52;;;;;;;12.16;69.53;99647.34;10439793;28;20485;-62
2024/03/04 18:13:46;;;;;;;19.60;15.05;;;;;;;12.07;69.71;99642.91;10414481;28;20585;-62
2024/03/04 18:18:47;;;;;;;17.60;13.30;;;;;;;12.10;69.89;99642.59;10420868;28;20114;-62
2024/03/04 18:23:49;;;;;;;20.67;14.00;;;;;;;12.13;69.60;99644.97;10424000;28;20577;-61
2024/03/04 18:28:51;;;;;;;20.45;14.85;;;;;;;12.12;69.42;99644.16;10432695;28;20040;-61
2024/03/04 18:33:53;;;;;;;20.33;14.27;;;;;;;12.06;69.51;99633.25;10433386;28;20044;-62
2024/03/04 18:38:56;;;;;;;17.42;13.15;;;;;;;11.99;69.98;99622.31;10417888;28;20048;-63
2024/03/04 18:44:00;;;;;;;21.02;14.80;;;;;;;12.20;69.69;99656.75;10372766;28;20048;-60
2024/03/04 18:49:02;;;;;;;20.38;13.57;;;;;;;12.15;69.49;99648.34;10409600;28;20174;-63
2024/03/04 18:54:03;;;;;;;20.05;14.90;;;;;;;12.14;69.63;99644.00;10402632;28;20091;-62
2024/03/04 18:59:08;;;;;;;21.98;17.13;;;;;;;12.13;69.35;99652.97;10431033;28;20060;-62
2024/03/04 19:04:09;;;;;;;20.13;15.70;;;;;;;12.13;70.12;99660.97;10417685;28;20052;-62
2024/03/04 19:09:11;;;;;;;19.90;16.13;;;;;;;11.97;70.11;99662.47;10431590;28;20056;-62
2024/03/04 19:14:13;;;;;;;20.95;15.75;;;;;;;12.08;70.18;99664.09;10417461;28;20371;-62
2024/03/04 19:19:15;;;;;;;23.00;15.88;;;;;;;12.00;70.01;99658.69;10412840;28;20053;-62
2024/03/04 19:24:17;;;;;;;19.83;14.60;;;;;;;12.08;70.24;99665.94;10420813;28;20071;-61
2024/03/04 19:29:18;;;;;;;20.10;14.75;;;;;;;12.11;70.22;99673.63;10437517;28;20063;-62
2024/03/04 19:34:19;;;;;;;20.35;15.25;;;;;;;12.06;70.22;99675.94;10421424;28;20064;-61
2024/03/04 19:39:21;;;;;;;20.58;14.30;;;;;;;12.07;70.13;99670.44;10410493;28;20370;-62
2024/03/04 19:44:22;;;;;;;19.58;14.98;;;;;;;12.02;69.93;99670.03;10431485;28;20046;-61
2024/03/04 19:49:24;;;;;;;18.17;14.43;;;;;;;11.99;69.96;99673.84;10417992;28;20540;-62
2024/03/04 19:54:25;;;;;;;22.67;15.52;;;;;;;12.04;70.06;99676.06;10427794;28;20500;-63
2024/03/04 19:59:28;;;;;;;17.92;13.07;;;;;;;11.99;69.72;99684.53;10416082;28;20800;-61
2024/03/04 20:04:32;;;;;;;20.63;14.00;;;;;;;11.95;69.96;99684.94;10402925;28;20132;-61
2024/03/04 20:09:36;;;;;;;20.55;13.90;;;;;;;11.98;69.70;99690.84;10412226;28;20053;-61
2024/03/04 20:14:37;;;;;;;20.35;15.60;;;;;;;11.91;71.18;99689.69;10429864;28;20061;-62
2024/03/04 20:19:40;;;;;;;17.90;13.50;;;;;;;11.90;71.07;99685.34;10432925;28;20061;-60
2024/03/04 20:24:41;;;;;;;16.10;13.77;;;;;;;12.01;71.55;99685.19;10429337;28;20354;-62
2024/03/04 20:29:43;;;;;;;17.30;14.05;;;;;;;11.84;72.21;99688.59;10417370;28;20049;-62
2024/03/04 20:34:44;;;;;;;19.17;14.02;;;;;;;11.78;73.03;99699.84;10429982;28;20122;-61
2024/03/04 20:39:47;;;;;;;17.63;14.48;;;;;;;11.77;73.13;99703.47;10415060;28;20387;-61
2024/03/04 20:44:50;;;;;;;19.33;14.20;;;;;;;11.76;73.38;99694.66;10428002;28;20053;-62
2024/03/04 20:49:53;;;;;;;18.10;13.85;;;;;;;11.85;73.09;99712.44;10420894;28;20057;-61
2024/03/04 20:54:54;;;;;;;19.17;13.00;;;;;;;11.84;72.50;99704.59;10409564;28;20182;-63
2024/03/04 20:59:57;;;;;;;17.08;12.02;;;;;;;11.75;72.98;99711.63;10421893;28;20648;-63
2024/03/04 21:04:58;;;;;;;17.85;13.75;;;;;;;11.75;73.33;99721.47;10429017;28;20055;-61
2024/03/04 21:09:59;;;;;;;18.73;14.35;;;;;;;11.74;73.33;99715.31;10415525;28;20053;-62
2024/03/04 21:15:01;;;;;;;16.85;14.18;;;;;;;11.77;73.33;99719.47;10392038;28;20520;-62
2024/03/04 21:20:10;;;;;;;17.80;14.10;;;;;;;11.77;73.07;99720.34;10360421;28;20056;-63
2024/03/04 21:25:14;;;;;;;16.75;13.43;;;;;;;11.67;72.83;99704.34;10404119;28;20264;-63
2024/03/04 21:30:16;;;;;;;18.30;14.25;;;;;;;11.84;72.85;99720.59;10402555;28;20114;-62
2024/03/04 21:35:17;;;;;;;17.48;14.32;;;;;;;11.79;73.01;99723.69;10422619;28;20060;-62
2024/03/04 21:40:21;;;;;;;17.53;14.37;;;;;;;11.74;73.54;99735.78;10427307;28;20045;-62
2024/03/04 21:45:22;;;;;;;18.58;14.63;;;;;;;11.79;73.42;99744.19;10434557;28;20059;-62
2024/03/04 21:50:24;;;;;;;17.08;14.55;;;;;;;11.81;72.82;99745.75;10422105;28;20052;-62
2024/03/04 21:55:26;;;;;;;20.92;15.55;;;;;;;11.77;72.94;99746.16;10409507;28;20135;-63
2024/03/04 22:00:29;;;;;;;22.35;16.13;;;;;;;11.64;73.25;99744.63;10412774;28;20193;-62
2024/03/04 22:05:30;;;;;;;19.30;16.20;;;;;;;11.58;72.77;99739.88;10430329;28;20051;-62
2024/03/04 22:10:32;;;;;;;21.33;16.13;;;;;;;11.59;72.67;99744.22;10431736;28;20047;-62
2024/03/04 22:15:33;;;;;;;19.42;15.82;;;;;;;11.62;72.52;99745.75;10407255;28;20063;-62
2024/03/04 22:20:36;;;;;;;20.52;15.05;;;;;;;11.61;73.05;99744.09;10421929;28;20530;-62
2024/03/04 22:25:37;;;;;;;20.48;15.55;;;;;;;11.57;72.91;99743.50;10412260;28;20049;-62
2024/03/04 22:30:39;;;;;;;25.08;16.45;;;;;;;11.47;73.63;99737.38;10435712;28;20131;-62
2024/03/04 22:35:41;;;;;;;20.85;16.33;;;;;;;11.39;74.16;99753.22;10417916;28;20774;-62
2024/03/04 22:40:43;;;;;;;22.27;16.02;;;;;;;11.36;74.10;99749.00;10430431;28;20048;-64
2024/03/04 22:45:45;;;;;;;22.40;15.73;;;;;;;11.29;74.54;99748.75;10430306;28;20040;-63
2024/03/04 22:50:47;;;;;;;20.15;15.70;;;;;;;11.24;75.10;99750.13;10426896;28;20075;-63
2024/03/04 22:55:48;;;;;;;17.25;13.95;;;;;;;11.23;75.36;99754.63;10396382;28;20059;-62